RJEC

Asahikawa Airport

Asahikawa / Hokkaidō, Japan
TAF RJEC 221110Z 2212/2318 17010KT 9999 FEW015 BKN030 TEMPO 2309/2312 1500 -SHSN FEW005 BKN008 TEMPO 2312/2318 2000 -SHSN
Issued Valid From Valid To
Jan-22 @ 11:10 UTC
(6 hours ago)
Jan-22 @ 12:00 UTC
(5 hours ago)
Jan-23 @ 18:00 UTC
(-1 days ago)
Jan-22 @ 12:00 to Jan-23 @ 18:00
TAF RJEC 221110Z 2212/2318 17010KT 9999 FEW015 BKN030
Wind Visibility Clouds
170° at 10 knots 10,000+ meters
  • Few at 1,500' AGL
  • Broken at 3,000' AGL
Temporary Jan-23 @ 09:00 to Jan-23 @ 12:00
TEMPO 2309/2312 1500 -SHSN FEW005 BKN008
Visibility Clouds Conditions
1,497 meters
  • Few at 500' AGL
  • Broken at 800' AGL
  • Light Snow
Temporary Jan-23 @ 12:00 to Jan-23 @ 18:00
TEMPO 2312/2318 2000 -SHSN
Visibility Conditions
1,996 meters
  • Light Snow
TAF RJEC 221110Z 2212/2318 17010KT 9999 FEW015 BKN030 TEMPO 2309/2312 1500 -SHSN FEW005 BKN008 TEMPO 2312/2318 2000 -SHSN
Issued Jan-22 @ 11:10 UTC
(6 hours ago)
Valid From Jan-22 @ 12:00 UTC
(5 hours ago)
Valid To Jan-23 @ 18:00 UTC
(-1 days ago)
Jan-22 @ 12:00 - Jan-23 @ 18:00
Wind Visibility
170° at 10 knots 10,000+ meters
Clouds
  • Few at 1,500' AGL
  • Broken at 3,000' AGL
Temporary Jan-23 @ 09:00 - Jan-23 @ 12:00
Clouds
  • Few at 500' AGL
  • Broken at 800' AGL
Conditions
  • Light Snow
Temporary Jan-23 @ 12:00 - Jan-23 @ 18:00
Conditions
  • Light Snow